South Bend, Indiana
Current Conditions -  °F | °C
As of 7:54 PM on Monday 26 Jan 2015 (Local Time) from KSBN Reporting Station
Overcast Overcast  
Wind Chill: 17°   Ceiling: 4400
Heat Index: 24°   Visibility: 10mi
Dew Point: 14°   Wind: 6mph
Humidity: 65%   Direction: 160°SSE
Pressure: 29.93"   Gusts: NA
Location:  41.68°N, 86.25°W
Report Text: KSBN 270054Z 16005KT 10SM OVC044 M04/M10 A2993 RMK AO2 SLP150 T10441100
Loading
Personal Weather Stations






























Interactive Weather Map New forecast layout! Learn more

10-Day Weather Forecast

Advertisements
Track Severe Weather on mobile